Time;durP1;ratioP1;P1;durP2;ratioP2;P2;SDS_P1;SDS_P2;PMS_P1;PMS_P2;Temp;Humidity;BMP_temperature;BMP_pressure;BME280_temperature;BME280_humidity;BME280_pressure;Samples;Min_cycle;Max_cycle;Signal;HPM_P1;HPM_P2
2022/05/04 00:00:32;;;;;;;6.47;4.27;;;10.80;99.90;;;;;;5080601;28;20449;-73
2022/05/04 00:02:59;;;;;;;6.90;4.73;;;10.90;99.90;;;;;;5079826;28;20457;-72
2022/05/04 00:05:26;;;;;;;5.97;4.20;;;10.80;99.90;;;;;;5086336;28;20461;-72
2022/05/04 00:07:53;;;;;;;4.43;3.50;;;10.80;99.90;;;;;;5087366;28;20816;-73
2022/05/04 00:10:22;;;;;;;4.23;3.37;;;10.60;99.90;;;;;;5081221;28;20577;-74
2022/05/04 00:12:49;;;;;;;7.40;3.93;;;10.50;99.90;;;;;;5079725;28;20803;-73
2022/05/04 00:15:16;;;;;;;7.23;3.43;;;10.40;99.90;;;;;;5086193;28;20467;-73
2022/05/04 00:17:43;;;;;;;5.90;3.93;;;10.40;99.90;;;;;;5086617;28;21102;-73
2022/05/04 00:20:11;;;;;;;4.50;3.60;;;10.40;99.90;;;;;;5082288;28;20892;-73
2022/05/04 00:22:37;;;;;;;4.47;3.47;;;10.30;99.90;;;;;;5076866;28;20460;-73
2022/05/04 00:25:05;;;;;;;4.23;3.70;;;10.20;99.90;;;;;;5082759;28;20507;-73
2022/05/04 00:27:34;;;;;;;4.10;3.40;;;10.30;99.90;;;;;;5074591;28;20536;-72
2022/05/04 00:30:01;;;;;;;5.80;4.10;;;10.20;99.90;;;;;;5083932;28;20927;-72
2022/05/04 00:32:28;;;;;;;5.30;3.57;;;10.30;99.90;;;;;;5085943;28;20968;-71
2022/05/04 00:34:55;;;;;;;7.40;3.73;;;10.30;99.90;;;;;;5073472;28;20808;-73
2022/05/04 00:37:21;;;;;;;4.70;3.73;;;10.30;99.90;;;;;;5085731;28;20961;-73
2022/05/04 00:39:48;;;;;;;5.90;4.67;;;10.40;99.90;;;;;;5082818;28;20465;-73
2022/05/04 00:42:18;;;;;;;9.30;3.37;;;10.30;99.90;;;;;;5079039;28;20458;-73
2022/05/04 00:44:49;;;;;;;5.37;3.83;;;10.30;99.90;;;;;;5082022;28;20514;-74
2022/05/04 00:47:16;;;;;;;5.10;3.20;;;10.20;99.90;;;;;;5086829;28;20492;-73
2022/05/04 00:49:46;;;;;;;5.17;3.70;;;10.10;99.90;;;;;;5082753;28;20935;-73
2022/05/04 00:52:14;;;;;;;10.80;4.37;;;10.10;99.90;;;;;;5074554;28;20885;-72
2022/05/04 00:54:44;;;;;;;5.07;3.67;;;10.00;99.90;;;;;;5078430;28;20453;-72
2022/05/04 00:57:14;;;;;;;5.10;3.10;;;10.00;99.90;;;;;;5083952;28;20447;-72
2022/05/04 00:59:42;;;;;;;7.43;4.43;;;9.90;99.90;;;;;;5084563;28;20458;-72
2022/05/04 01:02:10;;;;;;;4.50;3.77;;;10.00;99.90;;;;;;5082024;28;20464;-73
2022/05/04 01:04:37;;;;;;;4.30;2.80;;;9.90;99.90;;;;;;5078180;28;20464;-73
2022/05/04 01:07:04;;;;;;;5.00;3.50;;;10.00;99.90;;;;;;5082235;28;20454;-72
2022/05/04 01:09:31;;;;;;;4.57;3.67;;;10.00;99.90;;;;;;5084338;28;20443;-72
2022/05/04 01:11:58;;;;;;;3.77;3.37;;;10.00;99.90;;;;;;5082926;28;20488;-72
2022/05/04 01:14:25;;;;;;;7.17;4.23;;;10.00;99.90;;;;;;5078740;28;20482;-72
2022/05/04 01:16:52;;;;;;;6.33;4.40;;;10.00;99.90;;;;;;5081585;28;20988;-72
2022/05/04 01:19:20;;;;;;;5.03;3.80;;;10.00;99.90;;;;;;5086162;28;20452;-72
2022/05/04 01:21:51;;;;;;;4.77;3.90;;;9.90;99.90;;;;;;5082127;28;20943;-73
2022/05/04 01:24:18;;;;;;;7.53;4.30;;;9.90;99.90;;;;;;5087655;28;20561;-73
2022/05/04 01:26:45;;;;;;;4.67;3.93;;;9.80;99.90;;;;;;5071986;28;20530;-73
2022/05/04 01:29:14;;;;;;;6.13;3.47;;;9.80;99.90;;;;;;5085958;28;20453;-72
2022/05/04 01:31:40;;;;;;;5.50;3.97;;;9.80;99.90;;;;;;5083498;28;20501;-73
2022/05/04 01:34:07;;;;;;;5.43;4.00;;;10.00;99.90;;;;;;5078275;28;20461;-72
2022/05/04 01:36:34;;;;;;;4.60;3.50;;;9.90;99.90;;;;;;5078622;28;20543;-72
2022/05/04 01:39:03;;;;;;;5.40;3.80;;;9.80;99.90;;;;;;5085527;28;20494;-72
2022/05/04 01:44:14;;;;;;;5.70;3.87;;;9.60;99.90;;;;;;5081154;28;20549;-73
2022/05/04 01:46:41;;;;;;;3.77;3.47;;;9.70;99.90;;;;;;5077062;28;20451;-73
2022/05/04 01:49:08;;;;;;;4.77;4.20;;;9.70;99.90;;;;;;5082859;28;20503;-74
2022/05/04 01:51:35;;;;;;;4.43;3.30;;;9.70;99.90;;;;;;5084106;28;20506;-73
2022/05/04 01:54:03;;;;;;;5.47;4.60;;;9.90;99.90;;;;;;5080810;28;20465;-74
2022/05/04 01:56:30;;;;;;;6.27;3.20;;;9.90;99.90;;;;;;5077910;28;20461;-73
2022/05/04 01:58:56;;;;;;;5.80;4.70;;;9.90;99.90;;;;;;5082618;28;20443;-73
2022/05/04 02:01:23;;;;;;;5.53;3.67;;;9.90;99.90;;;;;;5075391;28;20873;-73
2022/05/04 02:03:50;;;;;;;4.60;4.10;;;9.90;99.90;;;;;;5081764;28;20450;-73
2022/05/04 02:06:17;;;;;;;6.00;4.37;;;9.90;99.90;;;;;;5085136;28;20453;-73
2022/05/04 02:08:45;;;;;;;5.10;3.97;;;10.10;99.90;;;;;;5080522;28;20461;-73
2022/05/04 02:11:13;;;;;;;4.17;3.77;;;10.20;99.90;;;;;;5077591;28;20490;-73
2022/05/04 02:13:40;;;;;;;4.77;3.67;;;10.10;99.90;;;;;;5081121;28;20453;-73
2022/05/04 02:16:07;;;;;;;5.23;4.00;;;10.10;99.90;;;;;;5084654;28;20817;-73
2022/05/04 02:18:34;;;;;;;5.33;4.37;;;10.10;99.90;;;;;;5080928;28;20943;-73
2022/05/04 02:21:01;;;;;;;5.30;4.00;;;10.20;99.90;;;;;;5077470;28;20453;-73
2022/05/04 02:23:28;;;;;;;4.70;3.67;;;10.10;99.90;;;;;;5090908;28;20463;-73
2022/05/04 02:25:55;;;;;;;5.30;4.80;;;10.10;99.90;;;;;;5077618;28;20452;-73
2022/05/04 02:28:23;;;;;;;5.77;4.17;;;10.00;99.90;;;;;;5080481;28;20456;-73
2022/05/04 02:30:50;;;;;;;4.30;3.90;;;10.20;99.90;;;;;;5084156;28;20479;-73
2022/05/04 02:33:17;;;;;;;5.07;3.90;;;10.30;99.90;;;;;;5082055;28;20494;-73
2022/05/04 02:38:28;;;;;;;4.10;3.20;;;10.20;99.90;;;;;;5076847;28;20442;-73
2022/05/04 02:40:55;;;;;;;4.27;3.80;;;10.20;99.90;;;;;;5083245;28;20448;-73
2022/05/04 02:43:25;;;;;;;5.13;4.57;;;10.30;99.90;;;;;;5084487;28;20458;-73
2022/05/04 02:45:52;;;;;;;5.63;3.50;;;10.20;99.90;;;;;;5078711;28;20452;-73
2022/05/04 02:48:19;;;;;;;4.67;3.80;;;10.10;99.90;;;;;;5077382;28;20536;-73
2022/05/04 02:50:45;;;;;;;5.50;4.90;;;10.00;99.90;;;;;;5081608;28;20554;-73
2022/05/04 02:53:12;;;;;;;5.13;4.17;;;10.10;99.90;;;;;;5070091;28;20486;-73
2022/05/04 02:55:39;;;;;;;4.80;3.67;;;10.00;99.90;;;;;;5078806;28;20462;-73
2022/05/04 02:58:06;;;;;;;6.63;3.70;;;10.00;99.90;;;;;;5077415;28;20458;-73
2022/05/04 03:00:34;;;;;;;5.80;4.13;;;10.00;99.90;;;;;;5079774;28;20465;-73
2022/05/04 03:03:00;;;;;;;4.53;3.87;;;10.10;99.90;;;;;;5083766;28;20461;-72
2022/05/04 03:05:27;;;;;;;6.50;4.90;;;10.10;99.90;;;;;;5080326;28;20570;-72
2022/05/04 03:07:54;;;;;;;4.33;3.50;;;10.30;99.90;;;;;;5077050;28;20201;-73
2022/05/04 03:10:21;;;;;;;4.50;3.93;;;10.30;99.90;;;;;;5080760;28;20874;-73
2022/05/04 03:12:48;;;;;;;7.80;4.90;;;10.30;99.90;;;;;;5083439;28;20474;-73
2022/05/04 03:15:15;;;;;;;7.70;4.53;;;10.30;99.90;;;;;;5080797;28;20479;-73
2022/05/04 03:17:43;;;;;;;5.73;4.67;;;10.40;99.90;;;;;;5076127;28;20523;-73
2022/05/04 03:20:12;;;;;;;5.23;4.73;;;10.40;99.90;;;;;;5080034;28;20534;-73
2022/05/04 03:22:39;;;;;;;4.40;4.00;;;10.30;99.90;;;;;;5086387;28;20500;-73
2022/05/04 03:25:08;;;;;;;7.67;4.87;;;10.30;99.90;;;;;;5079489;28;20920;-73
2022/05/04 03:27:35;;;;;;;6.30;5.20;;;10.40;99.90;;;;;;5082932;28;20462;-73
2022/05/04 03:30:02;;;;;;;6.90;4.57;;;10.30;99.90;;;;;;5081477;28;20452;-73
2022/05/04 03:32:29;;;;;;;4.40;3.97;;;10.30;99.90;;;;;;5076589;28;20485;-72
2022/05/04 03:34:57;;;;;;;8.50;5.13;;;10.30;99.90;;;;;;5083251;28;20938;-72
2022/05/04 03:37:24;;;;;;;6.90;5.00;;;10.30;99.90;;;;;;5087678;28;20796;-72
2022/05/04 03:39:51;;;;;;;5.67;4.07;;;10.30;99.90;;;;;;5085511;28;20951;-72
2022/05/04 03:42:17;;;;;;;8.33;5.33;;;10.40;99.90;;;;;;5080637;28;20469;-73
2022/05/04 03:44:46;;;;;;;9.47;4.87;;;10.40;99.90;;;;;;5081526;28;20629;-73
2022/05/04 03:47:13;;;;;;;5.90;4.73;;;10.30;99.90;;;;;;5087768;28;20456;-72
2022/05/04 03:49:40;;;;;;;5.63;4.30;;;10.30;99.90;;;;;;5086493;28;20460;-73
2022/05/04 03:52:09;;;;;;;6.20;5.33;;;10.40;99.90;;;;;;5073514;28;20495;-72
2022/05/04 03:54:36;;;;;;;4.73;4.23;;;10.50;99.90;;;;;;5073455;28;20443;-73
2022/05/04 03:57:03;;;;;;;6.00;4.90;;;10.60;99.90;;;;;;5087250;28;20449;-72
2022/05/04 03:59:31;;;;;;;5.60;4.23;;;10.60;99.90;;;;;;5085486;28;20870;-72
2022/05/04 04:01:58;;;;;;;4.50;3.90;;;10.40;99.90;;;;;;5080722;28;20977;-72
2022/05/04 04:04:25;;;;;;;5.63;4.57;;;10.40;99.90;;;;;;5080264;28;20943;-74
2022/05/04 04:06:51;;;;;;;6.40;4.10;;;10.40;99.90;;;;;;5086305;28;21236;-72
2022/05/04 04:09:20;;;;;;;4.77;3.87;;;10.40;99.90;;;;;;5087094;28;20457;-73
2022/05/04 04:11:46;;;;;;;5.60;4.70;;;10.40;99.90;;;;;;5080762;28;20473;-72
2022/05/04 04:14:13;;;;;;;4.37;3.97;;;10.40;99.90;;;;;;5080744;28;20444;-72
2022/05/04 04:16:40;;;;;;;6.17;4.30;;;10.40;99.90;;;;;;5085600;28;20533;-72
2022/05/04 04:19:09;;;;;;;6.40;4.60;;;10.50;99.90;;;;;;5087157;28;20547;-73
2022/05/04 04:21:53;;;;;;;6.40;4.83;;;10.50;99.90;;;;;;5080789;28;20503;-72
2022/05/04 04:24:23;;;;;;;5.77;4.20;;;10.50;99.90;;;;;;5089486;28;20463;-72
2022/05/04 04:26:50;;;;;;;6.27;4.33;;;10.50;99.90;;;;;;5083824;28;20454;-72
2022/05/04 04:29:17;;;;;;;7.50;5.13;;;10.60;99.90;;;;;;5080164;28;20461;-72
2022/05/04 04:31:44;;;;;;;6.30;4.67;;;10.70;99.90;;;;;;5081681;28;20814;-73
2022/05/04 04:34:11;;;;;;;9.37;4.60;;;10.80;99.90;;;;;;5086820;28;20445;-74
2022/05/04 04:36:38;;;;;;;7.00;3.57;;;10.90;99.90;;;;;;5083854;28;20548;-73
2022/05/04 04:39:05;;;;;;;4.13;3.73;;;10.90;99.90;;;;;;5079202;28;20953;-73
2022/05/04 04:41:33;;;;;;;5.23;4.10;;;10.80;99.90;;;;;;5080632;28;20506;-73
2022/05/04 04:44:00;;;;;;;6.00;5.37;;;10.70;99.90;;;;;;5086732;28;20532;-73
2022/05/04 04:46:27;;;;;;;8.33;5.60;;;10.80;99.90;;;;;;5085607;28;20447;-74
2022/05/04 04:48:54;;;;;;;5.77;5.17;;;10.70;99.90;;;;;;5079180;28;20448;-73
2022/05/04 04:51:21;;;;;;;8.63;4.80;;;10.70;99.90;;;;;;5080490;28;20455;-74
2022/05/04 04:53:47;;;;;;;7.10;5.00;;;10.70;99.90;;;;;;5072233;28;20518;-73
2022/05/04 04:56:14;;;;;;;5.10;4.30;;;10.80;99.90;;;;;;5086864;28;20451;-73
2022/05/04 04:58:43;;;;;;;7.43;4.87;;;10.80;99.90;;;;;;5079882;28;20869;-73
2022/05/04 05:01:09;;;;;;;8.80;4.67;;;10.90;99.90;;;;;;5078279;28;20892;-73
2022/05/04 05:03:37;;;;;;;4.33;3.37;;;10.90;99.90;;;;;;5084744;28;20778;-73
2022/05/04 05:06:04;;;;;;;8.40;4.30;;;11.00;99.90;;;;;;5086647;28;20445;-73
2022/05/04 05:08:31;;;;;;;4.70;4.10;;;11.30;99.90;;;;;;5080278;28;20449;-73
2022/05/04 05:10:58;;;;;;;4.30;3.50;;;11.30;99.90;;;;;;5079345;28;20452;-73
2022/05/04 05:13:25;;;;;;;6.30;4.00;;;11.20;99.90;;;;;;5084862;28;20574;-73
2022/05/04 05:16:07;;;;;;;5.33;3.87;;;11.30;99.90;;;;;;5085854;28;20444;-72
2022/05/04 05:18:34;;;;;;;6.47;4.30;;;11.40;99.90;;;;;;5083105;28;21007;-72
2022/05/04 05:21:01;;;;;;;9.10;5.17;;;11.40;99.90;;;;;;5078831;28;20468;-72
2022/05/04 05:23:28;;;;;;;5.80;4.20;;;11.30;99.90;;;;;;5092855;28;20886;-72
2022/05/04 05:25:55;;;;;;;6.03;4.10;;;11.30;99.90;;;;;;5078657;28;20933;-72
2022/05/04 05:28:22;;;;;;;5.60;3.87;;;11.40;99.90;;;;;;5080268;28;20449;-72
2022/05/04 05:30:49;;;;;;;4.90;4.00;;;11.40;99.90;;;;;;5084405;28;20537;-72
2022/05/04 05:33:17;;;;;;;3.37;3.07;;;11.50;99.90;;;;;;5084868;28;20569;-72
2022/05/04 05:35:44;;;;;;;4.27;3.73;;;11.50;99.90;;;;;;5078117;28;20448;-72
2022/05/04 05:38:11;;;;;;;5.23;3.63;;;11.60;99.90;;;;;;5079656;28;20457;-72
2022/05/04 05:40:38;;;;;;;5.50;4.50;;;11.60;99.90;;;;;;5084450;28;20969;-72
2022/05/04 05:43:05;;;;;;;4.50;3.83;;;11.70;99.90;;;;;;5085179;28;20458;-73
2022/05/04 05:45:32;;;;;;;4.00;3.63;;;11.80;99.90;;;;;;5085315;28;20800;-73
2022/05/04 05:47:59;;;;;;;5.13;4.07;;;11.80;99.90;;;;;;5085050;28;20454;-72
2022/05/04 05:50:28;;;;;;;5.20;4.03;;;11.90;99.90;;;;;;5078331;28;21026;-72
2022/05/04 05:52:55;;;;;;;4.13;3.77;;;12.00;99.90;;;;;;5077981;28;20502;-73
2022/05/04 05:55:22;;;;;;;8.47;4.73;;;12.10;99.90;;;;;;5084935;28;20926;-73
2022/05/04 05:57:48;;;;;;;9.90;6.23;;;12.10;99.90;;;;;;5084616;28;20458;-73
2022/05/04 06:00:16;;;;;;;4.80;3.47;;;12.40;99.90;;;;;;5084235;28;20467;-73
2022/05/04 06:02:44;;;;;;;3.83;3.43;;;12.60;99.90;;;;;;5084692;28;20467;-73
2022/05/04 06:05:11;;;;;;;5.67;3.77;;;12.60;99.90;;;;;;5079264;28;20505;-72
2022/05/04 06:07:40;;;;;;;5.57;3.90;;;12.70;99.90;;;;;;5077786;28;20467;-72
2022/05/04 06:10:08;;;;;;;3.63;3.10;;;12.70;99.90;;;;;;5084370;28;20491;-73
2022/05/04 06:12:34;;;;;;;4.10;3.70;;;12.70;99.90;;;;;;5084042;28;20558;-73
2022/05/04 06:15:02;;;;;;;5.40;3.80;;;12.70;99.90;;;;;;5080210;28;20452;-73
2022/05/04 06:17:29;;;;;;;4.33;3.37;;;12.90;99.90;;;;;;5078577;28;20449;-73
2022/05/04 06:19:56;;;;;;;3.40;3.03;;;13.00;99.90;;;;;;5083272;28;20449;-73
2022/05/04 06:22:23;;;;;;;4.60;4.17;;;13.20;99.90;;;;;;5086718;28;20556;-73
2022/05/04 06:24:51;;;;;;;5.40;4.37;;;13.30;99.90;;;;;;5082032;28;20478;-73
2022/05/04 06:27:18;;;;;;;4.00;3.20;;;13.50;99.90;;;;;;5084984;28;20498;-72
2022/05/04 06:35:13;;;;;;;4.07;3.70;;;13.60;99.90;;;;;;5078058;28;20421;-73
2022/05/04 06:37:40;;;;;;;4.00;3.57;;;13.60;99.90;;;;;;5083089;28;20561;-73
2022/05/04 06:40:10;;;;;;;4.50;4.10;;;13.90;99.90;;;;;;5084213;28;20536;-73
2022/05/04 06:42:37;;;;;;;5.63;3.10;;;13.80;99.90;;;;;;5078056;28;20437;-72
2022/05/04 06:45:06;;;;;;;4.73;3.40;;;13.80;99.90;;;;;;5077775;28;20446;-74
2022/05/04 06:47:33;;;;;;;4.63;3.20;;;13.90;99.90;;;;;;5082493;28;20453;-73
2022/05/04 06:50:00;;;;;;;4.47;3.70;;;13.80;99.90;;;;;;5084209;28;20444;-73
2022/05/04 06:52:27;;;;;;;9.00;4.43;;;14.10;99.90;;;;;;5069970;28;20609;-73
2022/05/04 06:54:54;;;;;;;3.80;3.33;;;14.20;99.90;;;;;;5073393;28;20450;-73
2022/05/04 06:57:22;;;;;;;5.10;3.53;;;14.20;99.90;;;;;;5081662;28;20880;-73
2022/05/04 06:59:49;;;;;;;5.23;3.30;;;14.20;99.90;;;;;;5083033;28;20450;-73
2022/05/04 07:02:16;;;;;;;4.60;3.30;;;14.20;99.90;;;;;;5081393;28;20543;-73
2022/05/04 07:04:43;;;;;;;6.10;4.07;;;13.90;99.90;;;;;;5077082;28;20510;-73
2022/05/04 07:07:10;;;;;;;4.60;3.53;;;14.00;99.90;;;;;;5079582;28;20446;-73
2022/05/04 07:09:37;;;;;;;4.87;4.23;;;14.20;99.90;;;;;;5083597;28;20804;-73
2022/05/04 07:12:04;;;;;;;5.10;3.80;;;14.40;99.90;;;;;;5081560;28;20445;-73
2022/05/04 07:14:33;;;;;;;8.60;3.80;;;14.40;75.40;;;;;;5076820;28;20488;-73
2022/05/04 07:17:00;;;;;;;9.50;3.30;;;14.40;1.00;;;;;;5079684;28;20453;-72
2022/05/04 07:19:27;;;;;;;4.10;3.20;;;14.40;29.90;;;;;;5084323;28;20454;-73
2022/05/04 07:21:54;;;;;;;3.20;2.73;;;14.40;16.10;;;;;;5081549;28;20979;-73
2022/05/04 07:24:21;;;;;;;3.57;3.20;;;14.50;36.80;;;;;;5084841;28;20465;-73
2022/05/04 07:26:47;;;;;;;4.33;3.30;;;14.50;1.00;;;;;;5082148;28;20533;-72
2022/05/04 07:29:14;;;;;;;4.17;3.67;;;14.50;1.00;;;;;;5076738;28;20528;-73
2022/05/04 07:31:43;;;;;;;3.50;3.20;;;14.40;1.00;;;;;;5076850;28;20454;-73
2022/05/04 07:34:09;;;;;;;5.03;3.10;;;14.50;1.00;;;;;;5083700;28;20568;-73
2022/05/04 07:36:36;;;;;;;4.00;3.03;;;14.60;1.00;;;;;;5082676;28;20531;-72
2022/05/04 07:39:03;;;;;;;3.67;3.33;;;14.90;1.00;;;;;;5076587;28;20544;-72
2022/05/04 07:44:14;;;;;;;4.03;3.07;;;15.00;1.00;;;;;;5079356;28;20554;-72
2022/05/04 07:46:43;;;;;;;3.87;2.90;;;15.00;1.00;;;;;;5076215;28;20447;-72
2022/05/04 07:49:10;;;;;;;2.90;2.60;;;14.80;1.00;;;;;;5081217;28;20452;-72
2022/05/04 07:51:37;;;;;;;4.30;3.20;;;14.80;1.00;;;;;;5068760;28;20462;-72
2022/05/04 07:54:04;;;;;;;3.20;2.90;;;14.80;99.90;;;;;;5070698;28;21025;-73
2022/05/04 07:56:31;;;;;;;3.07;2.60;;;15.10;99.90;;;;;;5083596;28;20458;-73
2022/05/04 07:58:58;;;;;;;4.03;2.90;;;14.80;1.00;;;;;;5080142;28;20452;-74
2022/05/04 08:06:54;;;;;;;3.57;2.90;;;14.80;99.90;;;;;;5078005;28;20438;-73
2022/05/04 08:09:21;;;;;;;3.27;2.87;;;15.10;99.90;;;;;;5076807;28;20450;-73
2022/05/04 08:11:48;;;;;;;2.50;2.30;;;15.10;66.40;;;;;;5080981;28;21029;-73
2022/05/04 08:14:16;;;;;;;5.53;3.07;;;15.10;99.90;;;;;;5083884;28;20517;-73
2022/05/04 08:16:43;;;;;;;2.97;2.40;;;15.10;1.00;;;;;;5078470;28;20441;-73
2022/05/04 08:19:11;;;;;;;3.53;2.50;;;15.00;1.30;;;;;;5079014;28;20456;-73
2022/05/04 08:21:38;;;;;;;2.90;2.50;;;15.00;6.80;;;;;;5083869;28;20448;-73
2022/05/04 08:24:06;;;;;;;2.90;2.53;;;15.20;99.90;;;;;;5076448;28;20515;-74
2022/05/04 08:26:33;;;;;;;5.20;3.10;;;15.10;1.00;;;;;;5083496;28;20453;-73
2022/05/04 08:29:00;;;;;;;3.93;2.63;;;15.20;1.00;;;;;;5087382;28;20498;-73
2022/05/04 08:31:28;;;;;;;2.63;2.40;;;15.20;99.90;;;;;;5083552;28;20537;-73
2022/05/04 08:33:55;;;;;;;3.30;2.87;;;15.10;1.00;;;;;;5078925;28;20480;-74
2022/05/04 08:36:23;;;;;;;3.38;2.83;;;15.00;1.00;;;;;;5083327;28;20819;-74
2022/05/04 08:38:50;;;;;;;3.40;3.10;;;15.10;1.00;;;;;;5086112;28;20229;-73
2022/05/04 08:41:17;;;;;;;3.80;2.60;;;15.10;1.00;;;;;;5083626;28;21004;-73
2022/05/04 08:43:45;;;;;;;3.07;2.50;;;15.20;1.00;;;;;;5079279;28;20550;-74
2022/05/04 08:46:15;;;;;;;3.13;2.80;;;14.80;99.90;;;;;;5082607;28;20452;-74
2022/05/04 08:48:44;;;;;;;3.30;3.00;;;15.10;1.00;;;;;;5084984;28;20938;-74
2022/05/04 08:51:11;;;;;;;2.60;2.40;;;15.10;1.00;;;;;;5084848;28;20456;-75
2022/05/04 08:53:42;;;;;;;2.73;2.07;;;14.90;99.90;;;;;;5073381;28;20578;-73
2022/05/04 08:56:09;;;;;;;3.97;2.77;;;14.80;3.50;;;;;;5086415;28;20445;-74
2022/05/04 08:58:37;;;;;;;3.53;2.57;;;14.90;99.90;;;;;;5079525;28;20448;-72
2022/05/04 09:01:04;;;;;;;3.30;2.83;;;14.80;99.90;;;;;;5078613;28;20469;-72
2022/05/04 09:03:33;;;;;;;3.60;2.73;;;14.80;99.90;;;;;;5086646;28;20445;-72
2022/05/04 09:06:00;;;;;;;3.53;2.40;;;14.90;99.90;;;;;;5086945;28;20534;-74
2022/05/04 09:08:27;;;;;;;4.43;2.77;;;15.00;99.90;;;;;;5080192;28;20533;-73
2022/05/04 09:10:55;;;;;;;4.60;3.03;;;14.90;99.90;;;;;;5078498;28;21051;-72
2022/05/04 09:13:22;;;;;;;3.07;2.77;;;14.90;99.90;;;;;;5085959;28;20545;-73
2022/05/04 09:15:51;;;;;;;3.67;2.93;;;14.90;99.90;;;;;;5085619;28;20926;-73
2022/05/04 09:18:19;;;;;;;4.27;3.20;;;14.70;99.90;;;;;;5080705;28;20562;-74
2022/05/04 09:20:52;;;;;;;3.53;2.80;;;14.50;99.90;;;;;;5078208;28;20556;-73
2022/05/04 09:23:21;;;;;;;4.13;3.30;;;14.60;99.90;;;;;;5092781;28;20939;-73
2022/05/04 09:25:50;;;;;;;4.90;2.90;;;14.50;99.90;;;;;;5078035;28;20533;-73
2022/05/04 09:28:18;;;;;;;5.13;3.50;;;14.40;99.90;;;;;;5082865;28;20446;-73
2022/05/04 09:30:46;;;;;;;4.00;2.90;;;14.30;99.90;;;;;;5083788;28;20448;-73
2022/05/04 09:33:18;;;;;;;3.20;2.87;;;14.30;99.90;;;;;;5082769;28;20445;-73
2022/05/04 09:35:45;;;;;;;4.03;3.20;;;14.50;99.90;;;;;;5078434;28;20499;-73
2022/05/04 09:46:39;;;;;;;5.10;3.10;;;;;;;;;;5085504;28;20809;-73
2022/05/04 09:49:13;;;;;;;4.90;3.47;;;15.40;99.90;;;;;;5079723;28;20543;-73
2022/05/04 09:51:43;;;;;;;4.60;4.20;;;15.80;99.90;;;;;;5074704;28;20942;-73
2022/05/04 09:54:18;;;;;;;6.13;3.97;;;16.10;32.30;;;;;;5071888;28;20620;-73
2022/05/04 09:56:49;;;;;;;6.17;4.20;;;16.10;1.00;;;;;;5085207;28;20475;-73
2022/05/04 09:59:19;;;;;;;5.93;4.87;;;;;;;;;;5084440;28;20451;-73
2022/05/04 10:01:46;;;;;;;5.13;4.10;;;;;;;;;;5084919;28;20934;-74
2022/05/04 10:04:13;;;;;;;5.73;4.50;;;;;;;;;;5084901;28;20971;-74
2022/05/04 10:06:40;;;;;;;6.37;4.40;;;;;;;;;;5077730;28;20451;-73
2022/05/04 10:09:08;;;;;;;5.73;4.30;;;;;;;;;;5078800;28;20485;-74
2022/05/04 10:11:35;;;;;;;6.57;5.00;;;;;;;;;;5084423;28;20951;-73
2022/05/04 10:14:03;;;;;;;6.03;5.43;;;;;;;;;;5085556;28;20485;-73
2022/05/04 10:16:33;;;;;;;7.63;5.73;;;;;;;;;;5072029;28;20540;-72
2022/05/04 10:19:02;;;;;;;5.43;4.93;;;;;;;;;;5085272;28;20996;-75
2022/05/04 10:21:30;;;;;;;6.40;5.10;;;16.40;1.00;;;;;;5079766;28;20536;-75
2022/05/04 10:24:01;;;;;;;6.23;4.23;;;18.00;99.90;;;;;;5090231;28;20452;-74
2022/05/04 10:26:33;;;;;;;6.70;5.20;;;18.30;99.90;;;;;;5080590;28;20449;-74
2022/05/04 10:31:56;;;;;;;5.77;4.83;;;;;;;;;;5077963;28;20433;-74
2022/05/04 10:34:23;;;;;;;5.80;5.00;;;;;;;;;;5078922;28;20476;-72
2022/05/04 10:36:54;;;;;;;5.20;4.30;;;;;;;;;;5076978;28;20560;-73
2022/05/04 10:39:22;;;;;;;7.20;4.90;;;;;;;;;;5082883;28;20786;-73
2022/05/04 10:41:50;;;;;;;5.13;4.63;;;;;;;;;;5083230;28;20473;-73
2022/05/04 10:44:18;;;;;;;5.00;4.47;;;;;;;;;;5080097;28;20805;-73
2022/05/04 10:46:46;;;;;;;5.33;4.20;;;;;;;;;;5076716;28;20452;-73
2022/05/04 10:49:16;;;;;;;4.10;3.60;;;;;;;;;;5081171;28;20453;-73
2022/05/04 10:51:44;;;;;;;4.67;3.63;;;;;;;;;;5083319;28;20446;-73
2022/05/04 10:54:13;;;;;;;4.63;3.80;;;;;;;;;;5081268;28;20583;-73
2022/05/04 10:56:42;;;;;;;6.53;4.63;;;;;;;;;;5077356;28;20506;-73
2022/05/04 10:59:10;;;;;;;5.03;4.50;;;;;;;;;;5080570;28;20492;-73
2022/05/04 11:01:38;;;;;;;4.93;4.53;;;;;;;;;;5075612;28;20461;-73
2022/05/04 11:04:07;;;;;;;4.70;4.27;;;;;;;;;;5079633;28;20449;-73
2022/05/04 11:06:36;;;;;;;3.90;3.50;;;;;;;;;;5083583;28;20950;-73
2022/05/04 11:09:08;;;;;;;4.20;3.73;;;;;;;;;;5083657;28;20854;-73
2022/05/04 11:11:36;;;;;;;4.40;4.00;;;;;;;;;;5076589;28;20483;-73
2022/05/04 11:14:04;;;;;;;3.60;3.30;;;;;;;;;;5078062;28;20481;-73
2022/05/04 11:16:31;;;;;;;4.60;4.20;;;;;;;;;;5078206;28;20441;-74
2022/05/04 11:18:59;;;;;;;3.73;3.43;;;;;;;;;;5077865;28;20452;-73
2022/05/04 11:21:27;;;;;;;4.10;3.70;;;;;;;;;;5083263;28;20456;-73
2022/05/04 11:23:56;;;;;;;4.30;3.90;;;;;;;;;;5070901;28;20449;-73
2022/05/04 11:26:24;;;;;;;4.23;3.83;;;;;;;;;;5082128;28;20461;-73
2022/05/04 11:28:53;;;;;;;4.53;3.03;;;;;;;;;;5083480;28;20817;-73
2022/05/04 11:31:20;;;;;;;3.60;2.60;;;;;;;;;;5079192;28;20441;-73
2022/05/04 11:33:49;;;;;;;2.83;2.43;;;;;;;;;;5076303;28;20798;-73
2022/05/04 11:36:18;;;;;;;4.03;2.40;;;;;;;;;;5081160;28;20442;-73
2022/05/04 11:38:46;;;;;;;2.87;2.60;;;;;;;;;;5083057;28;20451;-73
2022/05/04 11:41:15;;;;;;;3.00;2.63;;;;;;;;;;5079601;28;20455;-73
2022/05/04 11:43:42;;;;;;;3.10;2.60;;;;;;;;;;5076854;28;20445;-73
2022/05/04 11:46:10;;;;;;;2.50;2.30;;;;;;;;;;5080325;28;20561;-74
2022/05/04 11:48:38;;;;;;;3.47;2.30;;;;;;;;;;5082787;28;20526;-73
2022/05/04 11:51:05;;;;;;;2.90;2.60;;;;;;;;;;5080724;28;20444;-74
2022/05/04 11:53:34;;;;;;;3.23;2.90;;;;;;;;;;5076987;28;20483;-73
2022/05/04 11:56:03;;;;;;;4.13;2.93;;;;;;;;;;5082731;28;20493;-73
2022/05/04 11:58:33;;;;;;;2.77;2.50;;;;;;;;;;5088082;28;21007;-75
2022/05/04 12:01:00;;;;;;;3.83;2.93;;;;;;;;;;5075272;28;20445;-74
2022/05/04 12:03:27;;;;;;;3.60;2.93;;;;;;;;;;5088453;28;20446;-74
2022/05/04 12:05:55;;;;;;;3.00;2.70;;;;;;;;;;5068807;28;20783;-73
2022/05/04 12:08:23;;;;;;;2.33;2.13;;;;;;;;;;5080566;28;20479;-73
2022/05/04 12:10:51;;;;;;;3.17;2.60;;;;;;;;;;5079395;28;20481;-73
2022/05/04 12:13:22;;;;;;;2.90;2.70;;;;;;;;;;5080740;28;20448;-73
2022/05/04 12:15:50;;;;;;;2.93;2.40;;;;;;;;;;5079879;28;20476;-73
2022/05/04 12:18:17;;;;;;;3.70;2.60;;;;;;;;;;5086070;28;20445;-73
2022/05/04 12:20:45;;;;;;;3.90;2.60;;;;;;;;;;5086430;28;20449;-73
2022/05/04 12:23:13;;;;;;;4.30;2.77;;;;;;;;;;5073979;28;20460;-73
2022/05/04 12:25:40;;;;;;;3.20;2.77;;;;;;;;;;5085960;28;20453;-73
2022/05/04 12:28:07;;;;;;;3.40;2.20;;;;;;;;;;5082493;28;20451;-73
2022/05/04 12:33:28;;;;;;;3.23;2.40;;;;;;;;;;5081305;28;20440;-73
2022/05/04 12:35:58;;;;;;;2.93;2.60;;;;;;;;;;5085962;28;21023;-74
2022/05/04 12:38:25;;;;;;;5.10;2.87;;;;;;;;;;5087116;28;20444;-74
2022/05/04 12:40:54;;;;;;;3.70;2.67;;;;;;;;;;5079254;28;20546;-73
2022/05/04 12:43:22;;;;;;;2.53;2.33;;;;;;;;;;5079604;28;20461;-73
2022/05/04 12:45:49;;;;;;;2.57;2.27;;;;;;;;;;5084905;28;20488;-72
2022/05/04 12:48:16;;;;;;;2.57;2.33;;;;;;;;;;5086019;28;20453;-73
2022/05/04 12:50:45;;;;;;;2.00;1.90;;;;;;;;;;5080188;28;20456;-73
2022/05/04 12:53:12;;;;;;;2.83;2.53;;;;;;;;;;5077546;28;20466;-74
2022/05/04 12:58:24;;;;;;;2.30;2.10;;;;;;;;;;5079888;28;20902;-73
2022/05/04 13:00:51;;;;;;;3.10;2.20;;;;;;;;;;5079883;28;20461;-73
2022/05/04 13:03:18;;;;;;;2.70;2.17;;;;;;;;;;5086590;28;20456;-73
2022/05/04 13:05:47;;;;;;;2.17;1.97;;;;;;;;;;5083219;28;20503;-73
2022/05/04 13:08:14;;;;;;;2.27;1.93;;;;;;;;;;5079458;28;20445;-73
2022/05/04 13:10:42;;;;;;;2.60;2.40;;;;;;;;;;5079835;28;20816;-73
2022/05/04 13:13:10;;;;;;;3.63;2.57;;;;;;;;;;5086628;28;20480;-74
2022/05/04 13:15:37;;;;;;;2.47;2.20;;;;;;;;;;5085695;28;20491;-73
2022/05/04 13:18:04;;;;;;;2.97;2.57;;;;;;;;;;5079449;28;20452;-74
2022/05/04 13:20:31;;;;;;;3.10;2.40;;;;;;;;;;5078727;28;20567;-73
2022/05/04 13:23:00;;;;;;;2.90;2.60;;;;;;;;;;5093190;28;20488;-74
2022/05/04 13:25:27;;;;;;;2.37;2.17;;;;;;;;;;5078718;28;20450;-73
2022/05/04 13:27:54;;;;;;;2.70;2.27;;;;;;;;;;5084617;28;20449;-73
2022/05/04 13:30:22;;;;;;;1.87;1.70;;;;;;;;;;5085339;28;20453;-73
2022/05/04 13:32:49;;;;;;;2.83;2.17;;;;;;;;;;5079964;28;20449;-74
2022/05/04 13:35:16;;;;;;;3.40;2.30;;;;;;;;;;5078838;28;20906;-73
2022/05/04 13:37:44;;;;;;;2.57;2.37;;;;;;;;;;5083356;28;20533;-73
2022/05/04 13:40:14;;;;;;;2.53;2.33;;;;;;;;;;5085278;28;20460;-73
2022/05/04 13:42:42;;;;;;;2.60;2.20;;;;;;;;;;5080273;28;20456;-74
2022/05/04 13:45:10;;;;;;;4.10;2.10;;;;;;;;;;5078459;28;20549;-73
2022/05/04 13:47:37;;;;;;;2.53;2.33;;;;;;;;;;5082017;28;20469;-74
2022/05/04 13:50:05;;;;;;;2.33;2.13;;;;;;;;;;5085144;28;20540;-73
2022/05/04 13:55:18;;;;;;;2.43;1.77;;;;;;;;;;5077818;28;20463;-74
2022/05/04 13:57:45;;;;;;;3.63;2.30;;;;;;;;;;5078846;28;20467;-73